sensor_id;sensor_type;location;lat;lon;timestamp;pressure;altitude;pressure_sealevel;temperature;humidity
36828;BME280;22766;48.042;11.192;2023-06-22T00:00:00;95099.19;;;19.55;100.00
36828;BME280;22766;48.042;11.192;2023-06-22T00:02:26;95095.97;;;19.53;100.00
36828;BME280;22766;48.042;11.192;2023-06-22T00:04:53;95091.75;;;19.46;100.00
36828;BME280;22766;48.042;11.192;2023-06-22T00:07:20;95098.84;;;19.39;100.00
36828;BME280;22766;48.042;11.192;2023-06-22T00:09:46;95099.03;;;19.37;100.00
36828;BME280;22766;48.042;11.192;2023-06-22T00:12:13;95094.19;;;19.28;100.00
36828;BME280;22766;48.042;11.192;2023-06-22T00:14:40;95089.75;;;19.22;100.00
36828;BME280;22766;48.042;11.192;2023-06-22T00:17:07;95087.13;;;19.22;100.00
36828;BME280;22766;48.042;11.192;2023-06-22T00:19:33;95093.16;;;19.22;100.00
36828;BME280;22766;48.042;11.192;2023-06-22T00:22:02;95085.94;;;19.18;100.00
36828;BME280;22766;48.042;11.192;2023-06-22T00:24:29;95089.53;;;19.17;100.00
36828;BME280;22766;48.042;11.192;2023-06-22T00:26:56;95086.34;;;19.08;100.00
36828;BME280;22766;48.042;11.192;2023-06-22T00:29:23;95098.00;;;19.06;100.00
36828;BME280;22766;48.042;11.192;2023-06-22T00:31:51;95088.94;;;19.08;100.00
36828;BME280;22766;48.042;11.192;2023-06-22T00:34:18;95092.97;;;19.04;100.00
36828;BME280;22766;48.042;11.192;2023-06-22T00:36:45;95093.19;;;19.03;100.00
36828;BME280;22766;48.042;11.192;2023-06-22T00:39:12;95091.75;;;19.00;100.00
36828;BME280;22766;48.042;11.192;2023-06-22T00:41:39;95073.66;;;18.99;100.00
36828;BME280;22766;48.042;11.192;2023-06-22T00:44:06;95068.22;;;19.00;100.00
36828;BME280;22766;48.042;11.192;2023-06-22T00:46:33;95065.00;;;19.05;100.00
36828;BME280;22766;48.042;11.192;2023-06-22T00:49:00;95063.38;;;19.04;100.00
36828;BME280;22766;48.042;11.192;2023-06-22T00:51:27;95061.78;;;18.96;100.00
36828;BME280;22766;48.042;11.192;2023-06-22T00:53:54;95066.41;;;18.88;100.00
36828;BME280;22766;48.042;11.192;2023-06-22T00:56:23;95064.78;;;18.87;100.00
36828;BME280;22766;48.042;11.192;2023-06-22T00:58:51;95055.94;;;18.88;100.00
36828;BME280;22766;48.042;11.192;2023-06-22T01:01:20;95061.38;;;18.86;100.00
36828;BME280;22766;48.042;11.192;2023-06-22T01:03:50;95046.69;;;18.79;100.00
36828;BME280;22766;48.042;11.192;2023-06-22T01:06:32;95045.66;;;18.73;100.00
36828;BME280;22766;48.042;11.192;2023-06-22T01:09:28;95038.66;;;18.67;100.00
36828;BME280;22766;48.042;11.192;2023-06-22T01:12:02;95035.03;;;18.61;100.00
36828;BME280;22766;48.042;11.192;2023-06-22T01:14:47;95030.19;;;18.58;100.00
36828;BME280;22766;48.042;11.192;2023-06-22T01:17:19;95028.56;;;18.57;100.00
36828;BME280;22766;48.042;11.192;2023-06-22T01:19:49;95022.53;;;18.57;100.00
36828;BME280;22766;48.042;11.192;2023-06-22T01:22:29;95017.91;;;18.52;100.00
36828;BME280;22766;48.042;11.192;2023-06-22T01:27:40;95015.91;;;18.48;100.00
36828;BME280;22766;48.042;11.192;2023-06-22T01:30:16;95030.56;;;18.49;100.00
36828;BME280;22766;48.042;11.192;2023-06-22T01:32:43;95025.50;;;18.41;100.00
36828;BME280;22766;48.042;11.192;2023-06-22T01:35:10;95031.72;;;18.40;100.00
36828;BME280;22766;48.042;11.192;2023-06-22T01:37:38;95037.59;;;18.42;100.00
36828;BME280;22766;48.042;11.192;2023-06-22T01:40:07;95034.34;;;18.40;100.00
36828;BME280;22766;48.042;11.192;2023-06-22T01:42:35;95030.72;;;18.34;100.00
36828;BME280;22766;48.042;11.192;2023-06-22T01:45:04;95048.41;;;18.32;100.00
36828;BME280;22766;48.042;11.192;2023-06-22T01:47:32;95050.00;;;18.33;100.00
36828;BME280;22766;48.042;11.192;2023-06-22T01:49:59;95040.94;;;18.29;100.00
36828;BME280;22766;48.042;11.192;2023-06-22T01:52:26;95040.38;;;18.27;100.00
36828;BME280;22766;48.042;11.192;2023-06-22T01:54:52;95044.19;;;18.25;100.00
36828;BME280;22766;48.042;11.192;2023-06-22T01:57:20;95037.72;;;18.21;100.00
36828;BME280;22766;48.042;11.192;2023-06-22T02:00:01;95049.97;;;18.14;100.00
36828;BME280;22766;48.042;11.192;2023-06-22T02:02:56;95054.59;;;18.12;100.00
36828;BME280;22766;48.042;11.192;2023-06-22T02:05:20;95056.97;;;18.07;100.00
36828;BME280;22766;48.042;11.192;2023-06-22T02:07:57;95052.75;;;18.06;100.00
36828;BME280;22766;48.042;11.192;2023-06-22T02:10:29;95047.13;;;18.02;100.00
36828;BME280;22766;48.042;11.192;2023-06-22T02:12:58;95052.53;;;17.94;100.00
36828;BME280;22766;48.042;11.192;2023-06-22T02:15:27;95052.09;;;17.91;100.00
36828;BME280;22766;48.042;11.192;2023-06-22T02:17:54;95052.47;;;17.88;100.00
36828;BME280;22766;48.042;11.192;2023-06-22T02:20:21;95063.34;;;17.85;100.00
36828;BME280;22766;48.042;11.192;2023-06-22T02:22:50;95057.09;;;17.79;100.00
36828;BME280;22766;48.042;11.192;2023-06-22T02:25:16;95058.06;;;17.71;100.00
36828;BME280;22766;48.042;11.192;2023-06-22T02:27:45;95070.22;;;17.58;100.00
36828;BME280;22766;48.042;11.192;2023-06-22T02:30:12;95071.41;;;17.49;100.00
36828;BME280;22766;48.042;11.192;2023-06-22T02:32:38;95073.00;;;17.50;100.00
36828;BME280;22766;48.042;11.192;2023-06-22T02:35:09;95064.28;;;17.43;100.00
36828;BME280;22766;48.042;11.192;2023-06-22T02:37:37;95070.06;;;17.32;100.00
36828;BME280;22766;48.042;11.192;2023-06-22T02:40:09;95059.19;;;17.28;100.00
36828;BME280;22766;48.042;11.192;2023-06-22T02:42:39;95067.72;;;17.16;100.00
36828;BME280;22766;48.042;11.192;2023-06-22T02:45:06;95066.47;;;17.05;100.00
36828;BME280;22766;48.042;11.192;2023-06-22T02:47:33;95073.66;;;17.03;100.00
36828;BME280;22766;48.042;11.192;2023-06-22T02:50:00;95068.25;;;17.05;100.00
36828;BME280;22766;48.042;11.192;2023-06-22T02:52:30;95068.69;;;17.08;100.00
36828;BME280;22766;48.042;11.192;2023-06-22T02:54:57;95062.72;;;17.14;100.00
36828;BME280;22766;48.042;11.192;2023-06-22T02:57:24;95063.53;;;17.15;100.00
36828;BME280;22766;48.042;11.192;2023-06-22T02:59:50;95065.31;;;17.14;100.00
36828;BME280;22766;48.042;11.192;2023-06-22T03:02:17;95059.34;;;17.20;100.00
36828;BME280;22766;48.042;11.192;2023-06-22T03:04:47;95058.34;;;17.21;100.00
36828;BME280;22766;48.042;11.192;2023-06-22T03:07:15;95051.50;;;17.20;100.00
36828;BME280;22766;48.042;11.192;2023-06-22T03:09:44;95050.69;;;17.20;100.00
36828;BME280;22766;48.042;11.192;2023-06-22T03:12:11;95051.88;;;17.17;100.00
36828;BME280;22766;48.042;11.192;2023-06-22T03:14:46;95046.09;;;17.22;100.00
36828;BME280;22766;48.042;11.192;2023-06-22T03:17:13;95052.28;;;17.14;100.00
36828;BME280;22766;48.042;11.192;2023-06-22T03:19:40;95048.81;;;17.07;100.00
36828;BME280;22766;48.042;11.192;2023-06-22T03:22:07;95043.00;;;17.12;100.00
36828;BME280;22766;48.042;11.192;2023-06-22T03:24:34;95052.47;;;17.13;100.00
36828;BME280;22766;48.042;11.192;2023-06-22T03:27:01;95052.22;;;17.08;100.00
36828;BME280;22766;48.042;11.192;2023-06-22T03:29:33;95057.44;;;17.08;100.00
36828;BME280;22766;48.042;11.192;2023-06-22T03:32:00;95038.59;;;17.06;100.00
36828;BME280;22766;48.042;11.192;2023-06-22T03:34:28;95053.84;;;17.09;100.00
36828;BME280;22766;48.042;11.192;2023-06-22T03:36:54;95048.84;;;17.14;100.00
36828;BME280;22766;48.042;11.192;2023-06-22T03:39:22;95051.09;;;17.17;100.00
36828;BME280;22766;48.042;11.192;2023-06-22T03:41:48;95055.91;;;17.20;100.00
36828;BME280;22766;48.042;11.192;2023-06-22T03:44:16;95054.06;;;17.14;100.00
36828;BME280;22766;48.042;11.192;2023-06-22T03:46:43;95069.97;;;17.19;100.00
36828;BME280;22766;48.042;11.192;2023-06-22T03:49:10;95066.88;;;17.09;100.00
36828;BME280;22766;48.042;11.192;2023-06-22T03:51:37;95066.13;;;17.15;100.00
36828;BME280;22766;48.042;11.192;2023-06-22T03:54:04;95073.16;;;17.14;100.00
36828;BME280;22766;48.042;11.192;2023-06-22T03:56:30;95076.38;;;17.16;100.00
36828;BME280;22766;48.042;11.192;2023-06-22T03:58:58;95077.81;;;17.25;100.00
36828;BME280;22766;48.042;11.192;2023-06-22T04:01:24;95073.66;;;17.31;100.00
36828;BME280;22766;48.042;11.192;2023-06-22T04:03:51;95069.84;;;17.33;100.00
36828;BME280;22766;48.042;11.192;2023-06-22T04:06:18;95072.88;;;17.37;100.00
36828;BME280;22766;48.042;11.192;2023-06-22T04:08:45;95069.13;;;17.46;100.00
36828;BME280;22766;48.042;11.192;2023-06-22T04:11:17;95064.53;;;17.48;100.00
36828;BME280;22766;48.042;11.192;2023-06-22T04:13:44;95063.97;;;17.52;100.00
36828;BME280;22766;48.042;11.192;2023-06-22T04:16:11;95055.94;;;17.54;100.00
36828;BME280;22766;48.042;11.192;2023-06-22T04:18:38;95061.84;;;17.62;100.00
36828;BME280;22766;48.042;11.192;2023-06-22T04:21:04;95067.06;;;17.62;100.00
36828;BME280;22766;48.042;11.192;2023-06-22T04:23:31;95064.47;;;17.69;100.00
36828;BME280;22766;48.042;11.192;2023-06-22T04:25:58;95070.34;;;17.78;100.00
36828;BME280;22766;48.042;11.192;2023-06-22T04:28:25;95069.13;;;17.80;100.00
36828;BME280;22766;48.042;11.192;2023-06-22T04:30:53;95070.75;;;17.81;100.00
36828;BME280;22766;48.042;11.192;2023-06-22T04:33:25;95065.38;;;17.89;100.00
36828;BME280;22766;48.042;11.192;2023-06-22T04:35:52;95064.34;;;17.90;100.00
36828;BME280;22766;48.042;11.192;2023-06-22T04:38:18;95061.34;;;17.93;100.00
36828;BME280;22766;48.042;11.192;2023-06-22T04:40:48;95052.13;;;17.97;100.00
36828;BME280;22766;48.042;11.192;2023-06-22T04:43:14;95063.81;;;18.08;100.00
36828;BME280;22766;48.042;11.192;2023-06-22T04:45:41;95056.81;;;18.15;100.00
36828;BME280;22766;48.042;11.192;2023-06-22T04:48:08;95053.97;;;18.16;100.00
36828;BME280;22766;48.042;11.192;2023-06-22T04:50:42;95058.06;;;18.25;100.00
36828;BME280;22766;48.042;11.192;2023-06-22T04:53:09;95059.47;;;18.34;100.00
36828;BME280;22766;48.042;11.192;2023-06-22T04:55:36;95057.06;;;18.39;100.00
36828;BME280;22766;48.042;11.192;2023-06-22T04:58:04;95058.72;;;18.47;100.00
36828;BME280;22766;48.042;11.192;2023-06-22T05:00:31;95057.34;;;18.57;100.00
36828;BME280;22766;48.042;11.192;2023-06-22T05:02:58;95060.97;;;18.70;100.00
36828;BME280;22766;48.042;11.192;2023-06-22T05:05:44;95064.78;;;18.87;100.00
36828;BME280;22766;48.042;11.192;2023-06-22T05:08:11;95048.09;;;19.01;100.00
36828;BME280;22766;48.042;11.192;2023-06-22T05:10:38;95041.84;;;19.08;100.00
36828;BME280;22766;48.042;11.192;2023-06-22T05:13:20;95045.25;;;19.15;100.00
36828;BME280;22766;48.042;11.192;2023-06-22T05:15:48;95048.91;;;19.14;100.00
36828;BME280;22766;48.042;11.192;2023-06-22T05:18:14;95050.09;;;19.18;100.00
36828;BME280;22766;48.042;11.192;2023-06-22T05:20:41;95043.84;;;19.19;100.00
36828;BME280;22766;48.042;11.192;2023-06-22T05:23:08;95046.03;;;19.29;100.00
36828;BME280;22766;48.042;11.192;2023-06-22T05:25:35;95041.03;;;19.34;100.00
36828;BME280;22766;48.042;11.192;2023-06-22T05:28:02;95027.13;;;19.40;100.00
36828;BME280;22766;48.042;11.192;2023-06-22T05:30:32;95030.13;;;19.43;100.00
36828;BME280;22766;48.042;11.192;2023-06-22T05:32:58;95032.69;;;19.56;100.00
36828;BME280;22766;48.042;11.192;2023-06-22T05:35:25;95033.63;;;19.82;100.00
36828;BME280;22766;48.042;11.192;2023-06-22T05:37:52;95035.97;;;20.03;100.00
36828;BME280;22766;48.042;11.192;2023-06-22T05:40:19;95031.28;;;20.18;100.00
36828;BME280;22766;48.042;11.192;2023-06-22T05:42:46;95042.88;;;20.35;100.00
36828;BME280;22766;48.042;11.192;2023-06-22T05:45:13;95052.88;;;20.51;100.00
36828;BME280;22766;48.042;11.192;2023-06-22T05:47:39;95050.97;;;20.65;100.00
36828;BME280;22766;48.042;11.192;2023-06-22T05:50:07;95057.78;;;20.72;100.00
36828;BME280;22766;48.042;11.192;2023-06-22T05:52:38;95058.56;;;21.04;100.00
36828;BME280;22766;48.042;11.192;2023-06-22T05:55:05;95059.00;;;21.25;100.00
36828;BME280;22766;48.042;11.192;2023-06-22T05:57:32;95051.69;;;21.52;100.00
36828;BME280;22766;48.042;11.192;2023-06-22T05:59:59;95042.47;;;21.61;100.00
36828;BME280;22766;48.042;11.192;2023-06-22T06:02:25;95039.94;;;21.73;100.00
36828;BME280;22766;48.042;11.192;2023-06-22T06:04:52;95033.78;;;21.97;100.00
36828;BME280;22766;48.042;11.192;2023-06-22T06:07:19;95038.06;;;22.09;100.00
36828;BME280;22766;48.042;11.192;2023-06-22T06:09:46;95032.53;;;22.17;100.00
36828;BME280;22766;48.042;11.192;2023-06-22T06:12:12;95023.22;;;22.33;100.00
36828;BME280;22766;48.042;11.192;2023-06-22T06:14:39;95031.38;;;22.43;100.00
36828;BME280;22766;48.042;11.192;2023-06-22T06:17:06;95025.94;;;22.56;100.00
36828;BME280;22766;48.042;11.192;2023-06-22T06:19:33;95025.50;;;22.71;100.00
36828;BME280;22766;48.042;11.192;2023-06-22T06:21:59;95028.34;;;22.58;100.00
36828;BME280;22766;48.042;11.192;2023-06-22T06:24:26;95035.47;;;22.69;100.00
36828;BME280;22766;48.042;11.192;2023-06-22T06:26:53;95036.81;;;22.60;100.00
36828;BME280;22766;48.042;11.192;2023-06-22T06:29:20;95032.63;;;22.82;100.00
36828;BME280;22766;48.042;11.192;2023-06-22T06:31:46;95027.75;;;23.08;100.00
36828;BME280;22766;48.042;11.192;2023-06-22T06:34:14;95028.59;;;23.44;100.00
36828;BME280;22766;48.042;11.192;2023-06-22T06:36:41;95037.66;;;23.48;100.00
36828;BME280;22766;48.042;11.192;2023-06-22T06:39:08;95030.75;;;23.58;100.00
36828;BME280;22766;48.042;11.192;2023-06-22T06:41:36;95027.25;;;23.92;100.00
36828;BME280;22766;48.042;11.192;2023-06-22T06:44:03;95032.28;;;23.82;100.00
36828;BME280;22766;48.042;11.192;2023-06-22T06:46:29;95027.47;;;24.02;100.00
36828;BME280;22766;48.042;11.192;2023-06-22T06:48:56;95024.97;;;24.24;100.00
36828;BME280;22766;48.042;11.192;2023-06-22T06:51:23;95019.41;;;24.37;100.00
36828;BME280;22766;48.042;11.192;2023-06-22T06:53:49;95023.44;;;24.40;100.00
36828;BME280;22766;48.042;11.192;2023-06-22T06:56:16;95027.63;;;24.80;100.00
36828;BME280;22766;48.042;11.192;2023-06-22T06:58:43;95030.75;;;24.94;97.74
36828;BME280;22766;48.042;11.192;2023-06-22T07:01:12;95028.81;;;25.06;93.63
36828;BME280;22766;48.042;11.192;2023-06-22T07:03:39;95031.47;;;25.39;95.85
36828;BME280;22766;48.042;11.192;2023-06-22T07:06:06;95028.28;;;25.59;92.92
36828;BME280;22766;48.042;11.192;2023-06-22T07:08:32;95016.84;;;25.37;91.36
36828;BME280;22766;48.042;11.192;2023-06-22T07:10:59;95022.59;;;25.45;89.35
36828;BME280;22766;48.042;11.192;2023-06-22T07:13:27;95017.81;;;25.31;93.25
36828;BME280;22766;48.042;11.192;2023-06-22T07:15:54;95011.97;;;25.83;89.58
36828;BME280;22766;48.042;11.192;2023-06-22T07:18:20;95014.66;;;26.05;86.04
36828;BME280;22766;48.042;11.192;2023-06-22T07:20:47;95018.28;;;26.21;86.17
36828;BME280;22766;48.042;11.192;2023-06-22T07:23:14;95006.56;;;25.73;84.52
36828;BME280;22766;48.042;11.192;2023-06-22T07:25:40;95007.22;;;25.85;88.12
36828;BME280;22766;48.042;11.192;2023-06-22T07:28:07;94999.38;;;25.90;84.78
36828;BME280;22766;48.042;11.192;2023-06-22T07:30:34;95000.47;;;26.16;86.55
36828;BME280;22766;48.042;11.192;2023-06-22T07:33:01;95001.06;;;26.71;80.01
36828;BME280;22766;48.042;11.192;2023-06-22T07:35:35;95000.34;;;26.81;79.59
36828;BME280;22766;48.042;11.192;2023-06-22T07:38:02;94999.22;;;27.04;80.75
36828;BME280;22766;48.042;11.192;2023-06-22T07:40:31;94996.56;;;27.35;76.02
36828;BME280;22766;48.042;11.192;2023-06-22T07:42:58;94994.09;;;27.76;72.30
36828;BME280;22766;48.042;11.192;2023-06-22T07:45:25;94990.69;;;27.85;69.52
36828;BME280;22766;48.042;11.192;2023-06-22T07:47:52;94999.50;;;27.44;73.01
36828;BME280;22766;48.042;11.192;2023-06-22T07:50:18;94991.44;;;27.29;77.17
36828;BME280;22766;48.042;11.192;2023-06-22T07:52:45;94993.00;;;27.25;75.54
36828;BME280;22766;48.042;11.192;2023-06-22T07:55:13;94996.63;;;27.09;74.57
36828;BME280;22766;48.042;11.192;2023-06-22T07:57:40;94989.97;;;27.06;75.82
36828;BME280;22766;48.042;11.192;2023-06-22T08:00:09;94995.03;;;27.44;76.39
36828;BME280;22766;48.042;11.192;2023-06-22T08:02:45;94987.22;;;28.41;68.13
36828;BME280;22766;48.042;11.192;2023-06-22T08:05:14;94987.00;;;28.63;64.19
36828;BME280;22766;48.042;11.192;2023-06-22T08:07:48;94991.25;;;28.54;65.69
36828;BME280;22766;48.042;11.192;2023-06-22T08:10:15;94989.16;;;29.06;63.26
36828;BME280;22766;48.042;11.192;2023-06-22T08:12:42;94992.06;;;29.00;59.65
36828;BME280;22766;48.042;11.192;2023-06-22T08:15:09;94986.47;;;28.76;62.68
36828;BME280;22766;48.042;11.192;2023-06-22T08:17:37;94991.00;;;28.81;62.90
36828;BME280;22766;48.042;11.192;2023-06-22T08:20:06;94991.53;;;28.78;60.43
36828;BME280;22766;48.042;11.192;2023-06-22T08:22:40;94983.81;;;28.61;60.52
36828;BME280;22766;48.042;11.192;2023-06-22T08:25:07;94973.75;;;29.08;62.04
36828;BME280;22766;48.042;11.192;2023-06-22T08:27:35;94975.59;;;29.28;57.72
36828;BME280;22766;48.042;11.192;2023-06-22T08:30:02;94972.09;;;29.37;58.97
36828;BME280;22766;48.042;11.192;2023-06-22T08:32:29;94975.59;;;29.33;59.66
36828;BME280;22766;48.042;11.192;2023-06-22T08:34:57;94976.91;;;29.40;55.94
36828;BME280;22766;48.042;11.192;2023-06-22T08:37:24;94981.09;;;29.77;54.93
36828;BME280;22766;48.042;11.192;2023-06-22T08:39:59;94981.22;;;30.05;49.65
36828;BME280;22766;48.042;11.192;2023-06-22T08:42:26;94978.00;;;30.13;51.36
36828;BME280;22766;48.042;11.192;2023-06-22T08:44:52;94976.38;;;30.27;50.08
36828;BME280;22766;48.042;11.192;2023-06-22T08:47:20;94971.88;;;30.13;50.07
36828;BME280;22766;48.042;11.192;2023-06-22T08:49:48;94973.00;;;30.02;50.54
36828;BME280;22766;48.042;11.192;2023-06-22T08:52:15;94972.06;;;30.36;49.36
36828;BME280;22766;48.042;11.192;2023-06-22T08:54:41;94969.84;;;30.49;47.04
36828;BME280;22766;48.042;11.192;2023-06-22T08:57:08;94970.97;;;30.37;46.67
36828;BME280;22766;48.042;11.192;2023-06-22T08:59:35;94971.84;;;30.67;44.73
36828;BME280;22766;48.042;11.192;2023-06-22T09:02:01;94970.28;;;30.61;44.69
36828;BME280;22766;48.042;11.192;2023-06-22T09:04:28;94970.53;;;30.64;45.03
36828;BME280;22766;48.042;11.192;2023-06-22T09:06:55;94971.56;;;30.73;46.69
36828;BME280;22766;48.042;11.192;2023-06-22T09:09:22;94975.72;;;30.89;46.74
36828;BME280;22766;48.042;11.192;2023-06-22T09:11:49;94963.19;;;31.18;44.71
36828;BME280;22766;48.042;11.192;2023-06-22T09:14:15;94965.97;;;31.37;45.78
36828;BME280;22766;48.042;11.192;2023-06-22T09:16:42;94963.72;;;31.20;45.91
36828;BME280;22766;48.042;11.192;2023-06-22T09:19:09;94964.28;;;31.46;46.34
36828;BME280;22766;48.042;11.192;2023-06-22T09:21:36;94974.78;;;31.38;46.58
36828;BME280;22766;48.042;11.192;2023-06-22T09:24:03;94964.69;;;31.58;44.82
36828;BME280;22766;48.042;11.192;2023-06-22T09:26:30;94963.47;;;31.74;43.88
36828;BME280;22766;48.042;11.192;2023-06-22T09:28:57;94962.25;;;32.28;43.57
36828;BME280;22766;48.042;11.192;2023-06-22T09:31:24;94966.16;;;32.35;42.07
36828;BME280;22766;48.042;11.192;2023-06-22T09:33:54;94955.25;;;32.32;43.70
36828;BME280;22766;48.042;11.192;2023-06-22T09:36:21;94949.22;;;32.45;42.82
36828;BME280;22766;48.042;11.192;2023-06-22T09:38:48;94955.28;;;32.69;41.34
36828;BME280;22766;48.042;11.192;2023-06-22T09:41:15;94945.66;;;32.12;40.31
36828;BME280;22766;48.042;11.192;2023-06-22T09:43:42;94948.69;;;32.80;40.97
36828;BME280;22766;48.042;11.192;2023-06-22T09:46:10;94953.16;;;33.03;39.58
36828;BME280;22766;48.042;11.192;2023-06-22T09:48:36;94942.03;;;33.28;38.10
36828;BME280;22766;48.042;11.192;2023-06-22T09:51:06;94934.84;;;33.10;38.91
36828;BME280;22766;48.042;11.192;2023-06-22T09:53:33;94931.69;;;32.89;37.56
36828;BME280;22766;48.042;11.192;2023-06-22T09:56:01;94933.34;;;33.04;38.65
36828;BME280;22766;48.042;11.192;2023-06-22T09:58:28;94925.28;;;33.36;38.46
36828;BME280;22766;48.042;11.192;2023-06-22T10:00:55;94929.81;;;32.90;38.65
36828;BME280;22766;48.042;11.192;2023-06-22T10:03:21;94924.00;;;33.47;38.84
36828;BME280;22766;48.042;11.192;2023-06-22T10:05:49;94924.00;;;33.34;36.82
36828;BME280;22766;48.042;11.192;2023-06-22T10:08:16;94918.88;;;33.05;37.78
36828;BME280;22766;48.042;11.192;2023-06-22T10:10:42;94924.31;;;33.59;38.53
36828;BME280;22766;48.042;11.192;2023-06-22T10:13:10;94918.88;;;33.64;37.54
36828;BME280;22766;48.042;11.192;2023-06-22T10:15:37;94930.88;;;34.08;36.66
36828;BME280;22766;48.042;11.192;2023-06-22T10:18:05;94925.34;;;34.40;35.53
36828;BME280;22766;48.042;11.192;2023-06-22T10:20:32;94920.97;;;34.44;34.73
36828;BME280;22766;48.042;11.192;2023-06-22T10:22:58;94925.38;;;34.84;35.85
36828;BME280;22766;48.042;11.192;2023-06-22T10:25:26;94921.78;;;35.11;34.72
36828;BME280;22766;48.042;11.192;2023-06-22T10:27:53;94923.13;;;35.44;35.66
36828;BME280;22766;48.042;11.192;2023-06-22T10:30:20;94924.38;;;35.77;34.34
36828;BME280;22766;48.042;11.192;2023-06-22T10:32:47;94916.47;;;35.81;34.04
36828;BME280;22766;48.042;11.192;2023-06-22T10:35:14;94912.75;;;35.99;32.27
36828;BME280;22766;48.042;11.192;2023-06-22T10:37:46;94913.09;;;35.36;32.33
36828;BME280;22766;48.042;11.192;2023-06-22T10:40:14;94909.59;;;34.60;33.45
36828;BME280;22766;48.042;11.192;2023-06-22T10:42:42;94908.63;;;34.21;34.80
36828;BME280;22766;48.042;11.192;2023-06-22T10:45:09;94906.28;;;34.06;35.08
36828;BME280;22766;48.042;11.192;2023-06-22T10:47:37;94907.44;;;34.13;36.05
36828;BME280;22766;48.042;11.192;2023-06-22T10:50:04;94901.22;;;34.40;36.02
36828;BME280;22766;48.042;11.192;2023-06-22T10:52:31;94899.91;;;34.51;36.06
36828;BME280;22766;48.042;11.192;2023-06-22T10:54:58;94902.97;;;34.58;35.82
36828;BME280;22766;48.042;11.192;2023-06-22T10:57:24;94903.69;;;34.94;35.99
36828;BME280;22766;48.042;11.192;2023-06-22T10:59:51;94900.91;;;34.99;34.93
36828;BME280;22766;48.042;11.192;2023-06-22T11:02:18;94904.22;;;35.35;34.81
36828;BME280;22766;48.042;11.192;2023-06-22T11:04:45;94902.28;;;35.19;34.00
36828;BME280;22766;48.042;11.192;2023-06-22T11:07:13;94897.78;;;35.76;32.50
36828;BME280;22766;48.042;11.192;2023-06-22T11:09:39;94899.00;;;36.09;31.86
36828;BME280;22766;48.042;11.192;2023-06-22T11:12:06;94897.66;;;36.45;32.67
36828;BME280;22766;48.042;11.192;2023-06-22T11:14:33;94899.88;;;36.43;31.00
36828;BME280;22766;48.042;11.192;2023-06-22T11:17:00;94900.16;;;36.76;29.99
36828;BME280;22766;48.042;11.192;2023-06-22T11:19:27;94896.06;;;36.62;30.42
36828;BME280;22766;48.042;11.192;2023-06-22T11:21:53;94890.34;;;36.89;28.87
36828;BME280;22766;48.042;11.192;2023-06-22T11:24:20;94883.84;;;36.30;30.19
36828;BME280;22766;48.042;11.192;2023-06-22T11:26:47;94886.88;;;36.71;30.76
36828;BME280;22766;48.042;11.192;2023-06-22T11:29:14;94879.72;;;36.84;29.75
36828;BME280;22766;48.042;11.192;2023-06-22T11:32:01;94882.16;;;37.78;29.67
36828;BME280;22766;48.042;11.192;2023-06-22T11:34:27;94882.63;;;37.80;28.14
36828;BME280;22766;48.042;11.192;2023-06-22T11:36:54;94880.47;;;38.23;27.73
36828;BME280;22766;48.042;11.192;2023-06-22T11:39:21;94878.09;;;37.63;27.78
36828;BME280;22766;48.042;11.192;2023-06-22T11:42:04;94869.94;;;37.42;28.24
36828;BME280;22766;48.042;11.192;2023-06-22T11:44:31;94863.66;;;37.21;28.47
36828;BME280;22766;48.042;11.192;2023-06-22T11:46:58;94863.06;;;37.91;29.09
36828;BME280;22766;48.042;11.192;2023-06-22T11:49:27;94863.53;;;37.93;28.55
36828;BME280;22766;48.042;11.192;2023-06-22T11:51:54;94858.91;;;37.94;27.15
36828;BME280;22766;48.042;11.192;2023-06-22T11:54:20;94850.84;;;38.14;28.21
36828;BME280;22766;48.042;11.192;2023-06-22T11:56:47;94854.50;;;38.39;27.73
36828;BME280;22766;48.042;11.192;2023-06-22T11:59:14;94852.72;;;38.22;28.12
36828;BME280;22766;48.042;11.192;2023-06-22T12:01:41;94852.09;;;38.79;28.96
36828;BME280;22766;48.042;11.192;2023-06-22T12:04:07;94855.22;;;38.69;29.18
36828;BME280;22766;48.042;11.192;2023-06-22T12:06:38;94852.50;;;38.48;28.11
36828;BME280;22766;48.042;11.192;2023-06-22T12:09:08;94849.50;;;38.00;28.29
36828;BME280;22766;48.042;11.192;2023-06-22T12:11:35;94838.41;;;37.72;28.18
36828;BME280;22766;48.042;11.192;2023-06-22T12:14:01;94838.84;;;38.03;28.67
36828;BME280;22766;48.042;11.192;2023-06-22T12:16:29;94839.06;;;37.69;29.66
36828;BME280;22766;48.042;11.192;2023-06-22T12:18:55;94836.94;;;38.33;29.29
36828;BME280;22766;48.042;11.192;2023-06-22T12:21:22;94841.53;;;38.32;28.20
36828;BME280;22766;48.042;11.192;2023-06-22T12:23:49;94829.00;;;37.87;29.33
36828;BME280;22766;48.042;11.192;2023-06-22T12:26:16;94832.47;;;37.58;30.08
36828;BME280;22766;48.042;11.192;2023-06-22T12:28:42;94840.16;;;37.39;31.00
36828;BME280;22766;48.042;11.192;2023-06-22T12:31:09;94834.19;;;37.63;31.05
36828;BME280;22766;48.042;11.192;2023-06-22T12:33:36;94822.50;;;38.50;29.26
36828;BME280;22766;48.042;11.192;2023-06-22T12:36:03;94830.50;;;39.11;28.87
36828;BME280;22766;48.042;11.192;2023-06-22T12:38:31;94837.50;;;39.73;29.09
36828;BME280;22766;48.042;11.192;2023-06-22T12:40:58;94825.13;;;39.96;27.44
36828;BME280;22766;48.042;11.192;2023-06-22T12:43:25;94828.00;;;40.15;28.32
36828;BME280;22766;48.042;11.192;2023-06-22T12:45:51;94821.06;;;40.30;27.97
36828;BME280;22766;48.042;11.192;2023-06-22T12:48:22;94815.09;;;40.48;27.81
36828;BME280;22766;48.042;11.192;2023-06-22T12:51:22;94815.75;;;40.73;26.99